Time;durP1;ratioP1;P1;durP2;ratioP2;P2;SDS_P1;SDS_P2;PMS_P1;PMS_P2;Temp;Humidity;BMP_temperature;BMP_pressure;BME280_temperature;BME280_humidity;BME280_pressure;Samples;Min_cycle;Max_cycle;Signal;HPM_P1;HPM_P2
2023/05/11 00:02:18;;;;;;;10.98;8.02;;;14.00;99.90;;;;;;5039159;28;20034;-75
2023/05/11 00:04:45;;;;;;;12.95;7.95;;;14.00;99.90;;;;;;5044357;28;20094;-75
2023/05/11 00:07:13;;;;;;;10.15;7.43;;;14.00;99.90;;;;;;5026879;28;20042;-74
2023/05/11 00:09:41;;;;;;;12.02;7.30;;;14.00;99.90;;;;;;5021940;28;20042;-74
2023/05/11 00:12:09;;;;;;;16.80;12.07;;;14.10;99.90;;;;;;5021467;28;20069;-75
2023/05/11 00:14:36;;;;;;;8.63;7.25;;;14.00;99.90;;;;;;5012585;28;20054;-74
2023/05/11 00:17:04;;;;;;;11.65;7.70;;;13.90;99.90;;;;;;5022708;28;20046;-75
2023/05/11 00:19:31;;;;;;;13.13;7.88;;;13.90;99.90;;;;;;5020234;28;20046;-74
2023/05/11 00:22:00;;;;;;;12.23;8.30;;;13.90;99.90;;;;;;5022821;28;20140;-74
2023/05/11 00:24:27;;;;;;;11.45;7.82;;;13.90;99.90;;;;;;5022105;28;20080;-74
2023/05/11 00:26:56;;;;;;;10.63;7.93;;;13.90;99.90;;;;;;5022002;28;20049;-73
2023/05/11 00:29:23;;;;;;;10.75;8.25;;;13.90;99.90;;;;;;5020463;28;20037;-73
2023/05/11 00:31:51;;;;;;;14.70;8.73;;;13.80;99.90;;;;;;5027958;28;20081;-75
2023/05/11 00:34:18;;;;;;;9.70;7.80;;;13.80;99.90;;;;;;5003397;28;20045;-74
2023/05/11 00:36:46;;;;;;;11.25;8.93;;;13.80;99.90;;;;;;5021876;28;20049;-73
2023/05/11 00:39:13;;;;;;;11.32;8.95;;;13.80;99.90;;;;;;5002301;28;20137;-75
2023/05/11 00:41:40;;;;;;;11.13;9.13;;;13.80;99.90;;;;;;5033662;28;20049;-74
2023/05/11 00:44:09;;;;;;;11.38;8.43;;;13.80;99.90;;;;;;5034698;28;20052;-74
2023/05/11 00:46:38;;;;;;;15.27;9.48;;;13.80;99.90;;;;;;5032114;28;20045;-73
2023/05/11 00:49:05;;;;;;;11.77;8.90;;;13.80;99.90;;;;;;5022278;28;20045;-75
2023/05/11 00:51:33;;;;;;;11.88;8.93;;;13.80;99.90;;;;;;5040247;28;20595;-74
2023/05/11 00:54:01;;;;;;;10.07;8.65;;;13.70;99.90;;;;;;5039103;28;20312;-74
2023/05/11 00:56:28;;;;;;;11.38;9.18;;;13.70;99.90;;;;;;5038623;28;20099;-73
2023/05/11 00:58:56;;;;;;;11.68;9.45;;;13.70;99.90;;;;;;5023412;28;20042;-75
2023/05/11 01:01:25;;;;;;;10.57;8.68;;;13.70;99.90;;;;;;5039830;28;20042;-73
2023/05/11 01:03:52;;;;;;;12.85;9.07;;;13.70;99.90;;;;;;5039745;28;20051;-74
2023/05/11 01:06:43;;;;;;;10.65;8.68;;;13.70;99.90;;;;;;5040397;28;20042;-74
2023/05/11 01:09:20;;;;;;;15.15;9.77;;;13.70;99.90;;;;;;5022481;28;20075;-74
2023/05/11 01:11:52;;;;;;;14.07;10.02;;;13.60;99.90;;;;;;5040587;28;20140;-74
2023/05/11 01:14:23;;;;;;;14.07;9.55;;;13.60;99.90;;;;;;5021293;28;20047;-75
2023/05/11 01:16:59;;;;;;;13.55;9.95;;;13.60;99.90;;;;;;5022165;28;20037;-74
2023/05/11 01:19:39;;;;;;;11.15;9.13;;;13.60;99.90;;;;;;5020297;28;20449;-75
2023/05/11 01:22:16;;;;;;;12.60;9.30;;;13.60;99.90;;;;;;5022745;28;20038;-74
2023/05/11 01:24:58;;;;;;;13.07;9.05;;;13.60;99.90;;;;;;5022260;28;20140;-74
2023/05/11 01:27:50;;;;;;;14.15;9.60;;;13.60;99.90;;;;;;5019779;28;20049;-73
2023/05/11 01:30:29;;;;;;;11.77;9.52;;;13.60;99.90;;;;;;5039453;28;20033;-74
2023/05/11 01:33:03;;;;;;;11.75;9.43;;;13.60;99.90;;;;;;5021317;28;20045;-75
2023/05/11 01:35:33;;;;;;;12.35;8.80;;;13.60;99.90;;;;;;5046842;28;20045;-73
2023/05/11 01:38:04;;;;;;;15.95;9.00;;;13.60;99.90;;;;;;5021100;28;20045;-74
2023/05/11 01:40:34;;;;;;;9.77;8.40;;;13.60;99.90;;;;;;5021166;28;20041;-74
2023/05/11 01:43:04;;;;;;;10.20;8.15;;;13.60;99.90;;;;;;5023606;28;20068;-74
2023/05/11 01:45:36;;;;;;;9.85;7.85;;;13.60;99.90;;;;;;5022325;28;20044;-74
2023/05/11 01:48:06;;;;;;;10.43;8.20;;;13.60;99.90;;;;;;5043423;28;20048;-72
2023/05/11 01:50:34;;;;;;;9.55;7.65;;;13.60;99.90;;;;;;5059699;28;20051;-73
2023/05/11 01:53:04;;;;;;;11.75;7.75;;;13.70;99.90;;;;;;5058082;28;20049;-74
2023/05/11 01:55:34;;;;;;;9.88;7.28;;;13.70;99.90;;;;;;5047154;28;20064;-76
2023/05/11 01:58:03;;;;;;;8.65;7.28;;;13.60;99.90;;;;;;5052255;23;20108;-75
2023/05/11 02:00:33;;;;;;;9.13;7.82;;;13.60;99.90;;;;;;5000620;28;20406;-77
2023/05/11 02:03:04;;;;;;;13.32;7.75;;;13.60;99.90;;;;;;5018261;28;20095;-77
2023/05/11 02:05:33;;;;;;;11.40;8.50;;;13.60;99.90;;;;;;5001288;28;20077;-76
2023/05/11 02:08:04;;;;;;;10.60;7.75;;;13.60;99.90;;;;;;5018223;28;20038;-77
2023/05/11 02:10:33;;;;;;;14.50;9.55;;;13.60;99.90;;;;;;5018209;28;20049;-77
2023/05/11 02:13:04;;;;;;;13.18;10.70;;;13.60;99.90;;;;;;5001388;28;20053;-78
2023/05/11 02:15:34;;;;;;;14.77;10.10;;;13.60;99.90;;;;;;5000611;28;20069;-77
2023/05/11 02:18:03;;;;;;;14.73;9.52;;;13.60;99.90;;;;;;5000710;28;20137;-77
2023/05/11 02:20:33;;;;;;;11.88;9.82;;;13.60;99.90;;;;;;5000036;28;20100;-76
2023/05/11 02:23:01;;;;;;;15.43;10.18;;;13.60;99.90;;;;;;5001472;28;20092;-78
2023/05/11 02:25:29;;;;;;;13.30;10.00;;;13.60;99.90;;;;;;5003669;28;20058;-78
2023/05/11 02:27:57;;;;;;;12.60;8.88;;;13.70;99.90;;;;;;5019420;28;20423;-78
2023/05/11 02:30:27;;;;;;;9.25;7.68;;;13.60;99.90;;;;;;5000324;28;20493;-77
2023/05/11 02:32:59;;;;;;;10.63;7.82;;;13.60;99.90;;;;;;5001308;28;20037;-77
2023/05/11 02:35:29;;;;;;;9.05;7.65;;;13.60;99.90;;;;;;5016114;28;20053;-77
2023/05/11 02:38:02;;;;;;;9.73;7.32;;;13.60;99.90;;;;;;5019855;28;20128;-78
2023/05/11 02:40:35;;;;;;;9.02;7.47;;;13.60;99.90;;;;;;5017287;28;20521;-76
2023/05/11 02:43:10;;;;;;;10.38;7.40;;;13.60;99.90;;;;;;5001223;28;20037;-77
2023/05/11 02:45:44;;;;;;;10.93;7.97;;;13.50;99.90;;;;;;5000094;28;20073;-76
2023/05/11 02:48:19;;;;;;;9.35;7.97;;;13.50;99.90;;;;;;5015475;28;20073;-76
2023/05/11 02:50:48;;;;;;;11.23;8.27;;;13.50;99.90;;;;;;5024304;28;20506;-77
2023/05/11 02:53:18;;;;;;;11.48;7.82;;;13.50;99.90;;;;;;5017780;28;20490;-78
2023/05/11 02:55:47;;;;;;;10.90;7.97;;;13.60;99.90;;;;;;5000864;28;20136;-78
2023/05/11 02:58:15;;;;;;;11.95;7.88;;;13.60;99.90;;;;;;5024147;28;20045;-78
2023/05/11 03:00:46;;;;;;;9.25;7.80;;;13.60;99.90;;;;;;4998289;28;20107;-77
2023/05/11 03:03:16;;;;;;;9.05;7.38;;;13.60;99.90;;;;;;4999351;28;20145;-76
2023/05/11 03:05:43;;;;;;;9.45;7.82;;;13.50;99.90;;;;;;4999326;28;20049;-79
2023/05/11 03:08:11;;;;;;;10.82;7.63;;;13.50;99.90;;;;;;5017410;28;20042;-78
2023/05/11 03:10:39;;;;;;;10.75;7.15;;;13.50;99.90;;;;;;5015073;28;20065;-77
2023/05/11 03:13:08;;;;;;;9.18;7.40;;;13.50;99.90;;;;;;5016856;28;20476;-76
2023/05/11 03:15:37;;;;;;;10.25;7.90;;;13.50;99.90;;;;;;4999815;28;20693;-78
2023/05/11 03:18:06;;;;;;;10.25;7.95;;;13.60;99.90;;;;;;5024282;28;20080;-78
2023/05/11 03:20:37;;;;;;;9.23;7.45;;;13.60;99.90;;;;;;5025049;28;20044;-77
2023/05/11 03:23:06;;;;;;;10.45;7.28;;;13.50;99.90;;;;;;5000362;28;20046;-76
2023/05/11 03:25:34;;;;;;;9.40;6.80;;;13.60;99.90;;;;;;5000103;28;20038;-74
2023/05/11 03:28:02;;;;;;;9.70;7.38;;;13.60;99.90;;;;;;4998481;28;20049;-77
2023/05/11 03:30:32;;;;;;;8.50;7.03;;;13.60;99.90;;;;;;4998728;28;20038;-77
2023/05/11 03:33:01;;;;;;;8.25;7.07;;;13.60;99.90;;;;;;5016471;28;20048;-77
2023/05/11 03:35:34;;;;;;;10.38;7.47;;;13.60;99.90;;;;;;5000013;28;20054;-77
2023/05/11 03:38:05;;;;;;;10.65;7.65;;;13.70;99.90;;;;;;4999098;28;20129;-78
2023/05/11 03:40:34;;;;;;;10.88;6.97;;;13.80;99.90;;;;;;5000863;28;20506;-78
2023/05/11 03:43:03;;;;;;;10.75;7.78;;;13.90;99.90;;;;;;5019921;28;20044;-77
2023/05/11 03:45:33;;;;;;;9.93;7.32;;;13.90;99.90;;;;;;5002863;28;20077;-78
2023/05/11 03:48:06;;;;;;;10.23;7.03;;;13.90;99.90;;;;;;5001841;28;20393;-76
2023/05/11 03:50:34;;;;;;;9.75;7.65;;;13.90;99.90;;;;;;5002898;28;20050;-77
2023/05/11 03:53:04;;;;;;;9.45;8.05;;;14.00;99.90;;;;;;5019071;28;20053;-77
2023/05/11 03:55:32;;;;;;;11.48;7.93;;;14.00;99.90;;;;;;5021627;28;20132;-77
2023/05/11 03:58:00;;;;;;;10.43;7.32;;;14.00;99.90;;;;;;5018423;28;20041;-78
2023/05/11 04:00:29;;;;;;;9.88;8.00;;;14.10;99.90;;;;;;5002633;28;20045;-78
2023/05/11 04:02:57;;;;;;;11.68;8.32;;;14.10;99.90;;;;;;5004460;28;20161;-78
2023/05/11 04:05:24;;;;;;;12.88;9.55;;;14.10;99.90;;;;;;5022221;28;20056;-78
2023/05/11 04:07:52;;;;;;;12.43;8.35;;;14.20;99.90;;;;;;5004181;28;20072;-78
2023/05/11 04:10:21;;;;;;;10.40;8.10;;;14.20;99.90;;;;;;5015053;28;20070;-77
2023/05/11 04:12:48;;;;;;;9.82;7.90;;;14.30;99.90;;;;;;5026968;28;20068;-77
2023/05/11 04:15:16;;;;;;;11.55;8.07;;;14.30;99.90;;;;;;4999308;28;20069;-75
2023/05/11 04:17:44;;;;;;;9.77;8.00;;;14.40;99.90;;;;;;5011183;28;20046;-77
2023/05/11 04:20:12;;;;;;;11.70;8.48;;;14.40;99.90;;;;;;5003912;28;20125;-77
2023/05/11 04:22:39;;;;;;;12.07;8.50;;;14.50;99.90;;;;;;4984180;28;20437;-76
2023/05/11 04:25:07;;;;;;;10.68;8.25;;;14.50;99.90;;;;;;4990738;28;20057;-78
2023/05/11 04:27:36;;;;;;;10.80;7.70;;;14.50;99.90;;;;;;4998098;28;20224;-77
2023/05/11 04:30:05;;;;;;;10.98;8.27;;;14.50;99.90;;;;;;5003771;28;20049;-78
2023/05/11 04:32:33;;;;;;;11.43;8.32;;;14.60;99.90;;;;;;5020557;28;20081;-79
2023/05/11 04:35:00;;;;;;;11.30;8.63;;;14.60;99.90;;;;;;5003011;28;20091;-78
2023/05/11 04:37:30;;;;;;;12.77;8.88;;;14.60;99.90;;;;;;5004419;28;20096;-76
2023/05/11 04:39:58;;;;;;;12.50;8.23;;;14.70;99.90;;;;;;5002192;28;20104;-77
2023/05/11 04:42:26;;;;;;;11.75;8.80;;;14.80;99.90;;;;;;5019428;28;20046;-78
2023/05/11 04:44:57;;;;;;;11.05;8.88;;;14.80;99.90;;;;;;5001165;28;20127;-76
2023/05/11 04:47:26;;;;;;;13.40;9.43;;;14.80;99.90;;;;;;5002583;28;20042;-76
2023/05/11 04:49:54;;;;;;;13.70;9.68;;;14.90;99.90;;;;;;5002511;28;20133;-75
2023/05/11 04:52:21;;;;;;;15.23;11.68;;;15.00;99.90;;;;;;5002123;28;20042;-74
2023/05/11 04:54:50;;;;;;;14.73;10.23;;;15.00;99.90;;;;;;5002931;28;20092;-77
2023/05/11 04:57:18;;;;;;;24.65;10.63;;;15.10;99.90;;;;;;5003043;28;20143;-77
2023/05/11 04:59:47;;;;;;;10.80;9.15;;;15.20;99.90;;;;;;5001155;28;20081;-77
2023/05/11 05:02:16;;;;;;;11.75;8.90;;;15.30;99.90;;;;;;5002549;28;20056;-78
2023/05/11 05:04:43;;;;;;;12.65;9.77;;;15.30;99.90;;;;;;5001935;28;20421;-78
2023/05/11 05:07:11;;;;;;;13.07;9.15;;;15.20;99.90;;;;;;5001856;28;20397;-78
2023/05/11 05:09:38;;;;;;;12.85;9.18;;;15.10;99.90;;;;;;5016987;28;20042;-78
2023/05/11 05:12:06;;;;;;;13.15;9.20;;;15.10;99.90;;;;;;5002113;28;20109;-76
2023/05/11 05:14:34;;;;;;;10.52;8.77;;;15.10;99.90;;;;;;5019608;28;20144;-77
2023/05/11 05:17:01;;;;;;;11.57;9.48;;;15.10;99.90;;;;;;5020170;28;20053;-78
2023/05/11 05:19:31;;;;;;;13.40;9.13;;;15.10;99.90;;;;;;5000362;28;20041;-75
2023/05/11 05:21:59;;;;;;;10.88;8.85;;;15.00;99.90;;;;;;4999569;28;20498;-78
2023/05/11 05:24:26;;;;;;;12.63;9.05;;;15.10;99.90;;;;;;5001063;28;20057;-78
2023/05/11 05:26:54;;;;;;;10.88;9.45;;;15.10;99.90;;;;;;5002114;28;20183;-77
2023/05/11 05:29:21;;;;;;;11.70;8.77;;;15.10;99.90;;;;;;5002042;28;20081;-78
2023/05/11 05:31:49;;;;;;;14.20;9.52;;;15.10;99.90;;;;;;5001292;28;20061;-77
2023/05/11 05:34:18;;;;;;;12.75;8.55;;;15.10;99.90;;;;;;5001194;28;20068;-79
2023/05/11 05:36:47;;;;;;;14.40;9.52;;;15.10;99.90;;;;;;5018870;28;20041;-76
2023/05/11 05:39:15;;;;;;;11.27;8.52;;;14.90;99.90;;;;;;5018213;28;20048;-78
2023/05/11 05:41:42;;;;;;;13.35;8.73;;;14.90;99.90;;;;;;5001409;28;20065;-77
2023/05/11 05:44:10;;;;;;;14.45;11.45;;;14.90;99.90;;;;;;5025898;28;20053;-76
2023/05/11 05:46:39;;;;;;;13.98;10.52;;;14.90;99.90;;;;;;5018084;28;20125;-75
2023/05/11 05:49:06;;;;;;;14.50;10.95;;;15.00;99.90;;;;;;5018681;28;20502;-76
2023/05/11 05:51:35;;;;;;;13.50;9.40;;;14.90;99.90;;;;;;5001753;28;20093;-76
2023/05/11 05:54:04;;;;;;;13.25;9.70;;;14.80;99.90;;;;;;5001961;28;20172;-76
2023/05/11 05:56:33;;;;;;;12.38;9.73;;;14.90;99.90;;;;;;5015709;28;20045;-77
2023/05/11 05:59:01;;;;;;;12.38;9.07;;;14.80;99.90;;;;;;5012805;28;20140;-76
2023/05/11 06:01:29;;;;;;;12.32;8.77;;;14.90;99.90;;;;;;5013253;28;20045;-76
2023/05/11 06:03:56;;;;;;;14.18;9.35;;;14.90;99.90;;;;;;4998092;28;20121;-75
2023/05/11 06:06:26;;;;;;;16.33;9.05;;;14.90;99.90;;;;;;5021679;28;20068;-76
2023/05/11 06:08:53;;;;;;;11.88;9.00;;;15.00;99.90;;;;;;4998973;28;20502;-77
2023/05/11 06:11:23;;;;;;;13.70;8.73;;;15.00;99.90;;;;;;5022684;28;20073;-76
2023/05/11 06:13:52;;;;;;;14.98;10.63;;;15.00;99.90;;;;;;4996247;28;20045;-78
2023/05/11 06:16:20;;;;;;;16.27;11.35;;;15.00;99.90;;;;;;4997443;28;20045;-76
2023/05/11 06:18:47;;;;;;;16.70;11.77;;;15.10;99.90;;;;;;4997245;28;20141;-78
2023/05/11 06:21:16;;;;;;;15.73;11.38;;;15.10;99.90;;;;;;4999567;28;20094;-77
2023/05/11 06:23:43;;;;;;;14.95;10.07;;;15.10;99.90;;;;;;5002019;28;20038;-76
2023/05/11 06:26:11;;;;;;;15.55;10.65;;;15.20;99.90;;;;;;4999081;28;20045;-77
2023/05/11 06:28:41;;;;;;;16.25;11.45;;;15.30;99.90;;;;;;4995633;28;20041;-76
2023/05/11 06:31:14;;;;;;;14.80;10.57;;;15.30;99.90;;;;;;4996373;28;20057;-77
2023/05/11 06:33:43;;;;;;;13.43;9.60;;;15.40;99.90;;;;;;4996858;28;20065;-77
2023/05/11 06:36:19;;;;;;;13.95;10.07;;;15.60;99.90;;;;;;4997573;28;20109;-77
2023/05/11 06:38:47;;;;;;;17.08;11.55;;;15.60;99.90;;;;;;4998464;28;20140;-78
2023/05/11 06:41:14;;;;;;;18.48;12.00;;;15.70;99.90;;;;;;4998502;28;20514;-76
2023/05/11 06:43:44;;;;;;;17.55;12.05;;;15.80;99.90;;;;;;4998975;28;20133;-76
2023/05/11 06:46:27;;;;;;;16.17;11.85;;;15.90;99.90;;;;;;4996686;28;20093;-76
2023/05/11 06:48:54;;;;;;;17.58;12.32;;;16.00;99.90;;;;;;4995875;28;20042;-78
2023/05/11 06:51:22;;;;;;;14.50;10.52;;;16.00;99.90;;;;;;4997349;28;20038;-77
2023/05/11 06:53:50;;;;;;;12.73;9.45;;;16.30;99.90;;;;;;4999245;28;20065;-76
2023/05/11 06:56:18;;;;;;;11.35;8.82;;;16.40;99.90;;;;;;4998700;28;20048;-76
2023/05/11 06:58:47;;;;;;;17.77;12.00;;;16.60;99.90;;;;;;5006555;28;20388;-76
2023/05/11 07:01:14;;;;;;;16.30;10.75;;;16.60;99.90;;;;;;5018419;28;20073;-77
2023/05/11 07:03:41;;;;;;;13.70;8.65;;;16.60;99.90;;;;;;5018313;28;20453;-76
2023/05/11 07:06:09;;;;;;;15.57;11.65;;;16.50;99.90;;;;;;5017474;28;20057;-75
2023/05/11 07:08:36;;;;;;;13.63;10.23;;;16.60;99.90;;;;;;5017712;28;20409;-75
2023/05/11 07:11:04;;;;;;;16.45;12.73;;;16.70;99.90;;;;;;5018164;28;20414;-76
2023/05/11 07:13:31;;;;;;;12.43;9.30;;;16.70;99.90;;;;;;5019794;28;20050;-76
2023/05/11 07:16:01;;;;;;;10.55;8.70;;;16.60;99.90;;;;;;5021871;28;20052;-76
2023/05/11 07:18:28;;;;;;;15.27;12.30;;;16.50;99.90;;;;;;5021579;28;20049;-76
2023/05/11 07:20:56;;;;;;;16.08;13.40;;;16.20;99.90;;;;;;5047138;28;20046;-77
2023/05/11 07:23:23;;;;;;;11.13;9.35;;;16.10;99.90;;;;;;5042388;28;20048;-78
2023/05/11 07:25:52;;;;;;;13.98;9.60;;;16.10;99.90;;;;;;5027350;28;20437;-76
2023/05/11 07:28:20;;;;;;;11.90;8.93;;;16.10;99.90;;;;;;5022465;28;20049;-75
2023/05/11 07:30:47;;;;;;;10.88;9.25;;;16.20;99.90;;;;;;5019952;28;20038;-77
2023/05/11 07:33:16;;;;;;;12.70;9.43;;;16.10;99.90;;;;;;5025754;28;20041;-76
2023/05/11 07:35:44;;;;;;;11.77;9.23;;;16.20;99.90;;;;;;5021656;28;20053;-77
2023/05/11 07:38:12;;;;;;;11.02;8.68;;;16.20;99.90;;;;;;5024131;28;20050;-85
2023/05/11 07:40:40;;;;;;;12.48;9.15;;;16.10;99.90;;;;;;5022824;28;20049;-79
2023/05/11 07:43:07;;;;;;;10.80;9.18;;;15.90;99.90;;;;;;5020849;28;20045;-77
2023/05/11 07:45:35;;;;;;;12.65;8.95;;;15.90;99.90;;;;;;5022021;28;20041;-82
2023/05/11 07:48:02;;;;;;;13.80;9.63;;;15.80;99.90;;;;;;5004395;28;20084;-84
2023/05/11 07:50:32;;;;;;;11.63;9.27;;;15.70;99.90;;;;;;5021066;28;20046;-84
2023/05/11 07:52:59;;;;;;;19.88;15.80;;;15.70;99.90;;;;;;5021189;28;20044;-84
2023/05/11 07:55:29;;;;;;;14.48;9.98;;;15.80;99.90;;;;;;5002965;28;20046;-77
2023/05/11 07:57:56;;;;;;;13.80;10.30;;;15.80;99.90;;;;;;5002519;28;20046;-78
2023/05/11 08:00:24;;;;;;;36.35;25.75;;;15.90;99.90;;;;;;5020527;28;20064;-75
2023/05/11 08:02:52;;;;;;;9.77;7.53;;;15.90;99.90;;;;;;5021204;28;20057;-78
2023/05/11 08:05:20;;;;;;;12.73;9.05;;;16.00;99.90;;;;;;5020387;28;20038;-77
2023/05/11 08:07:49;;;;;;;11.90;8.90;;;15.90;99.90;;;;;;5022278;28;20523;-75
2023/05/11 08:10:16;;;;;;;11.32;10.05;;;15.80;99.90;;;;;;5021720;28;20045;-78
2023/05/11 08:12:44;;;;;;;11.38;9.13;;;15.80;99.90;;;;;;5021390;28;20072;-78
2023/05/11 08:15:12;;;;;;;14.07;10.48;;;15.80;99.90;;;;;;5020134;28;20057;-76
2023/05/11 08:17:41;;;;;;;9.55;7.95;;;16.00;99.90;;;;;;5022236;28;20136;-77
2023/05/11 08:20:10;;;;;;;34.13;9.63;;;16.00;99.90;;;;;;5020251;28;20430;-77
2023/05/11 08:22:37;;;;;;;11.70;9.20;;;16.00;99.90;;;;;;5020825;28;20124;-77
2023/05/11 08:25:08;;;;;;;11.70;9.65;;;15.80;99.90;;;;;;5020325;28;20088;-76
2023/05/11 08:27:35;;;;;;;13.25;9.25;;;15.80;99.90;;;;;;5019798;28;20137;-77
2023/05/11 08:30:03;;;;;;;13.63;9.15;;;15.90;99.90;;;;;;5020509;28;20033;-77
2023/05/11 08:32:30;;;;;;;12.48;9.50;;;16.00;99.90;;;;;;5003495;28;20109;-78
2023/05/11 08:34:58;;;;;;;12.73;10.00;;;15.90;99.90;;;;;;5020259;28;20071;-76
2023/05/11 08:37:26;;;;;;;13.30;10.35;;;16.00;99.90;;;;;;5020884;28;20156;-77
2023/05/11 08:39:53;;;;;;;13.82;9.85;;;16.00;99.90;;;;;;5019083;28;20045;-76
2023/05/11 08:42:24;;;;;;;14.20;8.88;;;16.00;99.90;;;;;;5019523;28;20038;-75
2023/05/11 08:44:56;;;;;;;10.30;8.40;;;16.00;99.90;;;;;;5020567;28;20095;-78
2023/05/11 08:47:24;;;;;;;13.25;8.30;;;16.30;99.90;;;;;;5020946;28;20048;-77
2023/05/11 08:49:52;;;;;;;9.90;8.20;;;16.40;99.90;;;;;;5019335;28;20048;-78
2023/05/11 08:52:20;;;;;;;11.45;8.07;;;16.40;99.90;;;;;;5019185;28;20091;-77
2023/05/11 08:54:48;;;;;;;11.25;8.10;;;16.50;99.90;;;;;;5019500;28;20037;-78
2023/05/11 08:57:15;;;;;;;11.20;9.15;;;16.60;99.90;;;;;;5018279;28;20045;-78
2023/05/11 08:59:46;;;;;;;13.18;9.18;;;16.70;99.90;;;;;;5001835;28;20053;-78
2023/05/11 09:02:19;;;;;;;14.43;9.95;;;16.90;99.90;;;;;;5020361;28;20045;-77
2023/05/11 09:04:47;;;;;;;11.65;9.23;;;17.10;99.90;;;;;;5020332;28;20517;-78
2023/05/11 09:07:16;;;;;;;11.80;8.98;;;17.20;99.90;;;;;;5020219;28;20046;-76
2023/05/11 09:09:45;;;;;;;10.48;8.43;;;17.30;99.90;;;;;;5019009;28;20049;-77
2023/05/11 09:12:13;;;;;;;11.82;8.02;;;17.10;99.90;;;;;;5019913;28;20125;-78
2023/05/11 09:14:40;;;;;;;11.40;9.10;;;17.10;99.90;;;;;;5019448;28;20065;-78
2023/05/11 09:17:09;;;;;;;15.30;11.15;;;17.10;99.90;;;;;;5020404;28;20915;-76
2023/05/11 09:19:36;;;;;;;13.02;10.65;;;17.00;99.90;;;;;;5024671;28;20488;-77
2023/05/11 09:22:06;;;;;;;15.02;10.38;;;16.90;99.90;;;;;;5020043;28;20041;-78
2023/05/11 09:24:33;;;;;;;14.10;10.77;;;17.00;99.90;;;;;;5020085;28;20037;-76
2023/05/11 09:27:08;;;;;;;10.75;8.52;;;17.00;99.90;;;;;;5019771;28;20044;-78
2023/05/11 09:29:36;;;;;;;16.70;10.18;;;17.20;99.90;;;;;;5002449;28;20049;-78
2023/05/11 09:32:03;;;;;;;12.43;9.40;;;17.30;99.90;;;;;;5018901;28;20037;-77
2023/05/11 09:34:33;;;;;;;13.02;9.65;;;17.50;99.90;;;;;;5019052;28;20042;-76
2023/05/11 09:37:00;;;;;;;12.88;9.18;;;17.50;99.90;;;;;;5017486;28;20573;-77
2023/05/11 09:39:31;;;;;;;13.43;9.23;;;17.50;99.90;;;;;;5019757;28;20060;-79
2023/05/11 09:42:18;;;;;;;15.20;10.98;;;17.40;99.90;;;;;;5018929;28;20129;-76
2023/05/11 09:44:47;;;;;;;12.68;8.95;;;17.30;99.90;;;;;;5018867;28;20064;-76
2023/05/11 09:47:15;;;;;;;10.52;8.88;;;17.20;99.90;;;;;;5019488;28;20068;-77
2023/05/11 09:49:46;;;;;;;12.85;8.95;;;17.10;99.90;;;;;;5018407;28;20130;-78
2023/05/11 09:52:15;;;;;;;13.18;9.07;;;16.90;99.90;;;;;;5019154;28;20099;-78
2023/05/11 09:54:44;;;;;;;13.25;10.75;;;16.80;99.90;;;;;;5019247;28;20889;-79
2023/05/11 09:57:26;;;;;;;16.33;10.85;;;16.70;99.90;;;;;;5018066;28;20124;-77
2023/05/11 09:59:54;;;;;;;15.95;11.98;;;16.50;99.90;;;;;;5017320;28;20061;-78
2023/05/11 10:02:23;;;;;;;14.32;11.98;;;16.40;99.90;;;;;;5018203;28;20316;-78
2023/05/11 10:04:54;;;;;;;13.95;12.45;;;16.20;99.90;;;;;;5017994;28;20053;-78
2023/05/11 10:07:29;;;;;;;15.90;12.18;;;16.10;99.90;;;;;;5017040;28;20067;-75
2023/05/11 10:09:59;;;;;;;21.85;15.90;;;16.10;99.90;;;;;;5020941;28;20041;-85
2023/05/11 10:12:27;;;;;;;15.25;11.63;;;16.10;99.90;;;;;;5018159;28;20084;-75
2023/05/11 10:14:58;;;;;;;13.93;10.80;;;16.10;99.90;;;;;;5018517;28;20064;-75
2023/05/11 10:17:26;;;;;;;13.85;10.65;;;16.00;99.90;;;;;;5018921;28;20380;-77
2023/05/11 10:19:57;;;;;;;15.13;12.00;;;16.00;99.90;;;;;;5016625;28;20046;-76
2023/05/11 10:22:25;;;;;;;14.73;12.70;;;16.10;99.90;;;;;;5017508;28;20517;-77
2023/05/11 10:24:54;;;;;;;15.27;11.88;;;16.10;99.90;;;;;;5017438;28;20068;-76
2023/05/11 10:27:21;;;;;;;13.90;12.48;;;16.20;99.90;;;;;;5016789;28;20524;-75
2023/05/11 10:29:49;;;;;;;15.27;12.80;;;16.30;99.90;;;;;;5043835;28;20082;-76
2023/05/11 10:32:19;;;;;;;12.82;10.57;;;16.30;99.90;;;;;;5038815;28;20042;-76
2023/05/11 10:34:49;;;;;;;13.38;10.57;;;16.40;99.90;;;;;;5007003;28;20056;-76
2023/05/11 10:37:24;;;;;;;14.07;10.32;;;16.50;99.90;;;;;;5003396;28;20064;-85
2023/05/11 10:39:52;;;;;;;10.90;9.43;;;16.70;99.90;;;;;;5005623;28;20045;-78
2023/05/11 10:42:46;;;;;;;13.55;9.48;;;16.90;99.90;;;;;;5003441;28;20045;-76
2023/05/11 10:45:22;;;;;;;12.48;8.85;;;17.10;99.90;;;;;;5014846;28;20057;-77
2023/05/11 10:48:22;;;;;;;;;;;17.20;99.90;;;;;;5020738;28;20045;-77
2023/05/11 10:51:18;;;;;;;12.00;8.63;;;17.40;99.90;;;;;;5019496;28;20532;-78
2023/05/11 10:54:03;;;;;;;12.55;8.88;;;17.50;99.90;;;;;;5003059;28;20046;-78
2023/05/11 10:56:49;;;;;;;13.70;10.68;;;17.40;99.90;;;;;;5020162;28;20119;-78
2023/05/11 11:00:08;;;;;;;9.57;8.55;;;17.40;99.90;;;;;;5017388;28;20081;-78
2023/05/11 11:02:36;;;;;;;13.40;9.50;;;17.20;99.90;;;;;;4985275;28;20061;-77
2023/05/11 11:05:08;;;;;;;13.27;9.15;;;17.20;99.90;;;;;;5017499;28;20042;-77
2023/05/11 11:07:57;;;;;;;12.05;8.63;;;17.20;99.90;;;;;;5017928;28;20201;-78
2023/05/11 11:10:34;;;;;;;16.65;12.85;;;17.20;99.90;;;;;;5017813;28;20119;-77
2023/05/11 11:13:03;;;;;;;19.15;14.32;;;17.20;99.90;;;;;;5018076;28;20076;-78
2023/05/11 11:16:09;;;;;;;11.15;8.88;;;17.20;99.90;;;;;;5000126;28;20046;-78
2023/05/11 11:18:37;;;;;;;11.40;8.43;;;17.20;99.90;;;;;;4997314;28;20588;-75
2023/05/11 11:21:04;;;;;;;12.45;9.15;;;17.20;99.90;;;;;;4999424;28;20045;-77
2023/05/11 11:23:47;;;;;;;11.25;9.25;;;17.10;99.90;;;;;;5018551;28;20041;-78
2023/05/11 11:26:20;;;;;;;13.32;7.95;;;17.20;99.90;;;;;;5037712;28;20132;-76
2023/05/11 11:29:12;;;;;;;13.43;7.93;;;17.30;99.90;;;;;;5019204;28;20085;-75
2023/05/11 11:31:40;;;;;;;9.57;8.13;;;17.40;99.90;;;;;;5037292;28;20920;-78
2023/05/11 11:34:35;;;;;;;9.95;7.63;;;17.40;99.90;;;;;;5019261;28;20044;-78
2023/05/11 11:37:07;;;;;;;10.45;7.97;;;17.50;99.90;;;;;;5036094;28;20124;-78
2023/05/11 11:39:52;;;;;;;9.50;8.13;;;17.50;99.90;;;;;;5036881;28;20038;-76
2023/05/11 11:42:38;;;;;;;8.50;7.00;;;17.60;99.90;;;;;;5036371;28;20129;-77
2023/05/11 11:45:29;;;;;;;9.40;7.00;;;17.80;99.90;;;;;;5036952;28;20054;-77
2023/05/11 11:48:25;;;;;;;9.27;7.30;;;17.80;99.90;;;;;;5036266;28;20056;-77
2023/05/11 11:51:03;;;;;;;11.30;7.07;;;17.80;99.90;;;;;;5033214;28;20076;-77
2023/05/11 11:54:05;;;;;;;8.32;7.40;;;17.70;99.90;;;;;;5036849;28;20046;-77
2023/05/11 11:56:43;;;;;;;10.18;7.70;;;17.70;99.90;;;;;;5019548;28;20083;-76
2023/05/11 11:59:15;;;;;;;8.85;7.22;;;17.80;99.90;;;;;;5035493;28;20057;-76
2023/05/11 12:01:45;;;;;;;9.45;7.15;;;17.90;99.90;;;;;;5040317;28;20041;-77
2023/05/11 12:04:54;;;;;;;9.68;7.35;;;17.90;99.90;;;;;;5039741;28;20049;-76
2023/05/11 12:07:22;;;;;;;9.10;6.93;;;18.00;99.90;;;;;;5035889;28;20508;-77
2023/05/11 12:09:51;;;;;;;9.57;7.85;;;18.10;99.90;;;;;;5039732;28;20045;-77
2023/05/11 12:12:19;;;;;;;8.85;7.65;;;18.40;99.90;;;;;;5040835;28;20045;-76
2023/05/11 12:14:48;;;;;;;17.25;13.05;;;18.30;99.90;;;;;;5040462;28;20041;-77
2023/05/11 12:17:23;;;;;;;10.52;8.38;;;18.40;99.90;;;;;;5041794;28;20500;-77
2023/05/11 12:19:51;;;;;;;12.45;8.48;;;18.40;99.90;;;;;;5021673;28;20080;-77
2023/05/11 12:22:23;;;;;;;10.65;8.02;;;18.60;99.90;;;;;;5022827;28;20042;-77
2023/05/11 12:24:51;;;;;;;8.38;6.80;;;18.80;99.90;;;;;;5039797;28;20073;-78
2023/05/11 12:27:18;;;;;;;9.27;7.97;;;18.80;99.90;;;;;;5040955;28;20044;-78
2023/05/11 12:29:51;;;;;;;8.52;7.63;;;18.80;99.90;;;;;;5039750;28;20099;-77
2023/05/11 12:32:27;;;;;;;9.45;8.25;;;18.80;99.90;;;;;;5040828;28;20033;-78
2023/05/11 12:34:59;;;;;;;9.77;7.93;;;18.90;99.90;;;;;;5040858;28;20049;-78
2023/05/11 12:37:26;;;;;;;10.93;7.70;;;19.00;99.90;;;;;;5040044;28;20179;-76
2023/05/11 12:39:55;;;;;;;12.95;9.50;;;18.90;99.90;;;;;;5039504;28;20132;-78
2023/05/11 12:42:23;;;;;;;10.80;8.30;;;18.50;99.90;;;;;;5039956;28;20046;-77
2023/05/11 12:44:52;;;;;;;9.45;8.48;;;18.50;99.90;;;;;;5021563;28;20041;-84
2023/05/11 12:47:20;;;;;;;11.57;9.25;;;18.30;99.90;;;;;;5040923;28;20041;-79
2023/05/11 12:49:48;;;;;;;12.45;9.27;;;18.40;99.90;;;;;;5023739;28;20042;-80
2023/05/11 12:52:15;;;;;;;14.25;10.77;;;18.40;99.90;;;;;;5035443;28;20053;-80
2023/05/11 12:54:50;;;;;;;13.98;10.88;;;18.50;99.90;;;;;;5038577;28;20603;-78